sensor_id;sensor_type;location;lat;lon;timestamp;P1;durP1;ratioP1;P2;durP2;ratioP2
4738;SDS011;2383;48.632;10.156;2023-03-23T00:03:56;8.30;;;3.40;;
4738;SDS011;2383;48.632;10.156;2023-03-23T00:07:58;5.90;;;2.90;;
4738;SDS011;2383;48.632;10.156;2023-03-23T00:12:02;6.50;;;3.20;;
4738;SDS011;2383;48.632;10.156;2023-03-23T00:16:05;7.27;;;2.90;;
4738;SDS011;2383;48.632;10.156;2023-03-23T00:20:13;6.23;;;2.80;;
4738;SDS011;2383;48.632;10.156;2023-03-23T00:24:17;4.50;;;3.03;;
4738;SDS011;2383;48.632;10.156;2023-03-23T00:28:19;6.47;;;3.23;;
4738;SDS011;2383;48.632;10.156;2023-03-23T00:32:24;3.93;;;2.67;;
4738;SDS011;2383;48.632;10.156;2023-03-23T00:36:27;5.13;;;2.90;;
4738;SDS011;2383;48.632;10.156;2023-03-23T00:40:28;5.13;;;2.13;;
4738;SDS011;2383;48.632;10.156;2023-03-23T00:44:30;3.90;;;2.40;;
4738;SDS011;2383;48.632;10.156;2023-03-23T00:48:32;5.77;;;2.67;;
4738;SDS011;2383;48.632;10.156;2023-03-23T00:52:32;5.00;;;2.43;;
4738;SDS011;2383;48.632;10.156;2023-03-23T00:56:34;6.07;;;2.60;;
4738;SDS011;2383;48.632;10.156;2023-03-23T01:00:35;6.30;;;2.38;;
4738;SDS011;2383;48.632;10.156;2023-03-23T01:04:38;7.50;;;2.70;;
4738;SDS011;2383;48.632;10.156;2023-03-23T01:08:40;4.00;;;2.20;;
4738;SDS011;2383;48.632;10.156;2023-03-23T01:12:45;5.10;;;2.30;;
4738;SDS011;2383;48.632;10.156;2023-03-23T01:16:46;5.40;;;2.87;;
4738;SDS011;2383;48.632;10.156;2023-03-23T01:20:47;10.87;;;3.77;;
4738;SDS011;2383;48.632;10.156;2023-03-23T01:24:47;6.97;;;3.20;;
4738;SDS011;2383;48.632;10.156;2023-03-23T01:28:48;7.70;;;2.90;;
4738;SDS011;2383;48.632;10.156;2023-03-23T01:32:50;6.93;;;3.27;;
4738;SDS011;2383;48.632;10.156;2023-03-23T01:36:51;7.03;;;3.30;;
4738;SDS011;2383;48.632;10.156;2023-03-23T01:40:52;7.33;;;4.20;;
4738;SDS011;2383;48.632;10.156;2023-03-23T01:48:55;9.67;;;3.90;;
4738;SDS011;2383;48.632;10.156;2023-03-23T01:52:58;3.77;;;3.20;;
4738;SDS011;2383;48.632;10.156;2023-03-23T01:57:05;5.40;;;3.60;;
4738;SDS011;2383;48.632;10.156;2023-03-23T02:01:10;4.67;;;3.57;;
4738;SDS011;2383;48.632;10.156;2023-03-23T02:05:14;8.10;;;3.90;;
4738;SDS011;2383;48.632;10.156;2023-03-23T02:09:21;8.03;;;4.27;;
4738;SDS011;2383;48.632;10.156;2023-03-23T02:13:23;9.27;;;4.07;;
4738;SDS011;2383;48.632;10.156;2023-03-23T02:34:33;5.97;;;4.20;;
4738;SDS011;2383;48.632;10.156;2023-03-23T02:38:47;10.73;;;4.63;;
4738;SDS011;2383;48.632;10.156;2023-03-23T02:43:12;6.10;;;4.50;;
4738;SDS011;2383;48.632;10.156;2023-03-23T02:47:19;8.37;;;4.27;;
4738;SDS011;2383;48.632;10.156;2023-03-23T02:51:22;8.10;;;4.40;;
4738;SDS011;2383;48.632;10.156;2023-03-23T02:55:26;8.93;;;4.23;;
4738;SDS011;2383;48.632;10.156;2023-03-23T02:59:28;5.77;;;3.80;;
4738;SDS011;2383;48.632;10.156;2023-03-23T03:03:30;5.80;;;3.60;;
4738;SDS011;2383;48.632;10.156;2023-03-23T03:07:35;7.17;;;3.93;;
4738;SDS011;2383;48.632;10.156;2023-03-23T03:11:50;5.53;;;3.60;;
4738;SDS011;2383;48.632;10.156;2023-03-23T03:20:04;14.10;;;4.63;;
4738;SDS011;2383;48.632;10.156;2023-03-23T03:24:12;5.47;;;4.07;;
4738;SDS011;2383;48.632;10.156;2023-03-23T03:28:20;7.57;;;4.50;;
4738;SDS011;2383;48.632;10.156;2023-03-23T03:32:25;9.40;;;5.13;;
4738;SDS011;2383;48.632;10.156;2023-03-23T03:36:33;9.57;;;5.50;;
4738;SDS011;2383;48.632;10.156;2023-03-23T03:40:39;8.37;;;6.10;;
4738;SDS011;2383;48.632;10.156;2023-03-23T03:44:41;9.03;;;6.87;;
4738;SDS011;2383;48.632;10.156;2023-03-23T03:48:42;10.73;;;6.80;;
4738;SDS011;2383;48.632;10.156;2023-03-23T03:52:42;10.27;;;6.93;;
4738;SDS011;2383;48.632;10.156;2023-03-23T03:56:44;9.37;;;6.90;;
4738;SDS011;2383;48.632;10.156;2023-03-23T04:01:04;8.40;;;6.03;;
4738;SDS011;2383;48.632;10.156;2023-03-23T04:05:09;9.10;;;6.23;;
4738;SDS011;2383;48.632;10.156;2023-03-23T04:09:12;7.53;;;6.10;;
4738;SDS011;2383;48.632;10.156;2023-03-23T04:13:13;10.17;;;5.67;;
4738;SDS011;2383;48.632;10.156;2023-03-23T04:17:33;8.67;;;5.90;;
4738;SDS011;2383;48.632;10.156;2023-03-23T04:21:34;7.10;;;5.90;;
4738;SDS011;2383;48.632;10.156;2023-03-23T04:25:35;7.37;;;5.37;;
4738;SDS011;2383;48.632;10.156;2023-03-23T04:29:38;7.57;;;5.23;;
4738;SDS011;2383;48.632;10.156;2023-03-23T04:34:06;12.50;;;6.00;;
4738;SDS011;2383;48.632;10.156;2023-03-23T04:38:14;7.03;;;5.30;;
4738;SDS011;2383;48.632;10.156;2023-03-23T04:42:19;9.30;;;5.60;;
4738;SDS011;2383;48.632;10.156;2023-03-23T04:46:21;6.93;;;5.37;;
4738;SDS011;2383;48.632;10.156;2023-03-23T04:50:27;7.90;;;6.13;;
4738;SDS011;2383;48.632;10.156;2023-03-23T04:54:32;7.10;;;5.87;;
4738;SDS011;2383;48.632;10.156;2023-03-23T04:58:35;9.53;;;6.17;;
4738;SDS011;2383;48.632;10.156;2023-03-23T05:02:50;8.00;;;6.37;;
4738;SDS011;2383;48.632;10.156;2023-03-23T05:06:53;8.87;;;5.63;;
4738;SDS011;2383;48.632;10.156;2023-03-23T05:11:00;9.38;;;6.03;;
4738;SDS011;2383;48.632;10.156;2023-03-23T05:15:06;7.53;;;5.00;;
4738;SDS011;2383;48.632;10.156;2023-03-23T05:19:09;14.67;;;6.27;;
4738;SDS011;2383;48.632;10.156;2023-03-23T05:23:11;15.70;;;8.38;;
4738;SDS011;2383;48.632;10.156;2023-03-23T05:27:13;15.63;;;8.85;;
4738;SDS011;2383;48.632;10.156;2023-03-23T05:31:20;21.53;;;12.17;;
4738;SDS011;2383;48.632;10.156;2023-03-23T05:35:22;22.33;;;12.40;;
4738;SDS011;2383;48.632;10.156;2023-03-23T05:39:25;15.60;;;8.67;;
4738;SDS011;2383;48.632;10.156;2023-03-23T05:43:45;9.53;;;7.00;;
4738;SDS011;2383;48.632;10.156;2023-03-23T05:48:06;9.03;;;6.37;;
4738;SDS011;2383;48.632;10.156;2023-03-23T05:52:07;10.50;;;6.40;;
4738;SDS011;2383;48.632;10.156;2023-03-23T05:56:08;10.73;;;7.63;;
4738;SDS011;2383;48.632;10.156;2023-03-23T06:00:27;10.07;;;6.70;;
4738;SDS011;2383;48.632;10.156;2023-03-23T06:04:42;11.37;;;7.97;;
4738;SDS011;2383;48.632;10.156;2023-03-23T06:09:00;11.77;;;8.17;;
4738;SDS011;2383;48.632;10.156;2023-03-23T06:13:16;11.10;;;7.27;;
4738;SDS011;2383;48.632;10.156;2023-03-23T06:17:21;9.03;;;6.57;;
4738;SDS011;2383;48.632;10.156;2023-03-23T06:21:26;10.90;;;6.17;;
4738;SDS011;2383;48.632;10.156;2023-03-23T06:25:30;8.93;;;5.93;;
4738;SDS011;2383;48.632;10.156;2023-03-23T06:29:32;10.67;;;6.10;;
4738;SDS011;2383;48.632;10.156;2023-03-23T06:33:34;10.17;;;6.30;;
4738;SDS011;2383;48.632;10.156;2023-03-23T06:37:58;9.87;;;5.73;;
4738;SDS011;2383;48.632;10.156;2023-03-23T06:42:12;7.93;;;5.60;;
4738;SDS011;2383;48.632;10.156;2023-03-23T06:46:18;8.93;;;5.50;;
4738;SDS011;2383;48.632;10.156;2023-03-23T06:50:28;10.43;;;6.60;;
4738;SDS011;2383;48.632;10.156;2023-03-23T06:54:30;8.23;;;5.77;;
4738;SDS011;2383;48.632;10.156;2023-03-23T06:58:33;9.95;;;5.63;;
4738;SDS011;2383;48.632;10.156;2023-03-23T07:02:35;8.27;;;4.80;;
4738;SDS011;2383;48.632;10.156;2023-03-23T07:06:36;11.83;;;5.07;;
4738;SDS011;2383;48.632;10.156;2023-03-23T07:10:40;5.90;;;4.45;;
4738;SDS011;2383;48.632;10.156;2023-03-23T07:14:44;9.20;;;4.57;;
4738;SDS011;2383;48.632;10.156;2023-03-23T07:18:45;6.40;;;4.88;;
4738;SDS011;2383;48.632;10.156;2023-03-23T07:22:46;10.35;;;4.40;;
4738;SDS011;2383;48.632;10.156;2023-03-23T07:27:04;9.77;;;4.10;;
4738;SDS011;2383;48.632;10.156;2023-03-23T07:31:06;10.68;;;4.03;;
4738;SDS011;2383;48.632;10.156;2023-03-23T07:35:10;5.45;;;4.10;;
4738;SDS011;2383;48.632;10.156;2023-03-23T07:39:31;4.95;;;3.80;;
4738;SDS011;2383;48.632;10.156;2023-03-23T07:43:34;6.72;;;4.80;;
4738;SDS011;2383;48.632;10.156;2023-03-23T07:47:44;4.80;;;3.80;;
4738;SDS011;2383;48.632;10.156;2023-03-23T07:51:45;8.90;;;3.90;;
4738;SDS011;2383;48.632;10.156;2023-03-23T07:55:48;7.85;;;3.83;;
4738;SDS011;2383;48.632;10.156;2023-03-23T08:00:16;5.00;;;3.50;;
4738;SDS011;2383;48.632;10.156;2023-03-23T08:04:22;6.47;;;3.25;;
4738;SDS011;2383;48.632;10.156;2023-03-23T08:08:55;8.05;;;3.20;;
4738;SDS011;2383;48.632;10.156;2023-03-23T08:13:15;3.38;;;2.72;;
4738;SDS011;2383;48.632;10.156;2023-03-23T08:17:49;3.95;;;2.88;;
4738;SDS011;2383;48.632;10.156;2023-03-23T08:22:17;4.47;;;3.28;;
4738;SDS011;2383;48.632;10.156;2023-03-23T08:26:38;4.40;;;3.10;;
4738;SDS011;2383;48.632;10.156;2023-03-23T08:30:57;3.60;;;2.80;;
4738;SDS011;2383;48.632;10.156;2023-03-23T08:35:09;6.40;;;3.55;;
4738;SDS011;2383;48.632;10.156;2023-03-23T08:39:31;5.03;;;2.97;;
4738;SDS011;2383;48.632;10.156;2023-03-23T08:43:45;5.32;;;3.20;;
4738;SDS011;2383;48.632;10.156;2023-03-23T08:48:06;9.00;;;3.30;;
4738;SDS011;2383;48.632;10.156;2023-03-23T08:52:31;5.70;;;3.42;;
4738;SDS011;2383;48.632;10.156;2023-03-23T08:57:00;4.72;;;2.72;;
4738;SDS011;2383;48.632;10.156;2023-03-23T09:01:13;4.20;;;2.95;;
4738;SDS011;2383;48.632;10.156;2023-03-23T09:05:17;7.55;;;3.17;;
4738;SDS011;2383;48.632;10.156;2023-03-23T09:09:56;4.85;;;2.47;;
4738;SDS011;2383;48.632;10.156;2023-03-23T09:13:57;4.40;;;2.90;;
4738;SDS011;2383;48.632;10.156;2023-03-23T09:17:58;3.60;;;2.40;;
4738;SDS011;2383;48.632;10.156;2023-03-23T09:22:01;3.40;;;2.70;;
4738;SDS011;2383;48.632;10.156;2023-03-23T09:26:03;5.30;;;2.60;;
4738;SDS011;2383;48.632;10.156;2023-03-23T09:30:08;2.85;;;2.45;;
4738;SDS011;2383;48.632;10.156;2023-03-23T09:34:11;5.45;;;2.30;;
4738;SDS011;2383;48.632;10.156;2023-03-23T09:38:13;3.40;;;2.90;;
4738;SDS011;2383;48.632;10.156;2023-03-23T09:46:35;3.28;;;2.28;;
4738;SDS011;2383;48.632;10.156;2023-03-23T09:51:03;4.50;;;2.50;;
4738;SDS011;2383;48.632;10.156;2023-03-23T09:55:17;3.92;;;2.10;;
4738;SDS011;2383;48.632;10.156;2023-03-23T09:59:36;3.25;;;2.15;;
4738;SDS011;2383;48.632;10.156;2023-03-23T10:03:43;2.38;;;1.60;;
4738;SDS011;2383;48.632;10.156;2023-03-23T10:07:45;2.08;;;1.20;;
4738;SDS011;2383;48.632;10.156;2023-03-23T10:12:07;2.28;;;1.50;;
4738;SDS011;2383;48.632;10.156;2023-03-23T10:16:11;2.53;;;1.77;;
4738;SDS011;2383;48.632;10.156;2023-03-23T10:24:39;3.72;;;2.20;;
4738;SDS011;2383;48.632;10.156;2023-03-23T10:33:26;1.65;;;1.20;;
4738;SDS011;2383;48.632;10.156;2023-03-23T10:37:37;4.18;;;1.35;;
4738;SDS011;2383;48.632;10.156;2023-03-23T10:41:42;2.75;;;1.20;;
4738;SDS011;2383;48.632;10.156;2023-03-23T10:45:43;2.22;;;1.40;;
4738;SDS011;2383;48.632;10.156;2023-03-23T10:49:50;2.25;;;1.40;;
4738;SDS011;2383;48.632;10.156;2023-03-23T10:53:58;2.28;;;1.30;;
4738;SDS011;2383;48.632;10.156;2023-03-23T11:02:02;1.45;;;1.20;;
4738;SDS011;2383;48.632;10.156;2023-03-23T11:06:27;4.30;;;1.52;;
4738;SDS011;2383;48.632;10.156;2023-03-23T11:10:38;2.00;;;1.40;;
4738;SDS011;2383;48.632;10.156;2023-03-23T11:14:48;2.85;;;1.65;;
4738;SDS011;2383;48.632;10.156;2023-03-23T11:18:50;3.10;;;1.58;;
4738;SDS011;2383;48.632;10.156;2023-03-23T11:22:52;2.85;;;1.20;;
4738;SDS011;2383;48.632;10.156;2023-03-23T11:26:55;2.08;;;1.45;;
4738;SDS011;2383;48.632;10.156;2023-03-23T11:30:58;1.30;;;1.20;;
4738;SDS011;2383;48.632;10.156;2023-03-23T11:35:03;3.03;;;1.83;;
4738;SDS011;2383;48.632;10.156;2023-03-23T11:43:34;3.10;;;1.60;;
4738;SDS011;2383;48.632;10.156;2023-03-23T11:47:41;1.90;;;1.50;;
4738;SDS011;2383;48.632;10.156;2023-03-23T11:51:53;2.33;;;1.70;;
4738;SDS011;2383;48.632;10.156;2023-03-23T11:56:05;2.75;;;1.70;;
4738;SDS011;2383;48.632;10.156;2023-03-23T12:00:15;2.20;;;1.60;;
4738;SDS011;2383;48.632;10.156;2023-03-23T12:12:50;1.63;;;1.42;;
4738;SDS011;2383;48.632;10.156;2023-03-23T12:42:32;3.60;;;1.95;;
4738;SDS011;2383;48.632;10.156;2023-03-23T12:55:23;3.65;;;1.90;;
4738;SDS011;2383;48.632;10.156;2023-03-23T13:04:05;2.80;;;1.85;;
4738;SDS011;2383;48.632;10.156;2023-03-23T13:08:22;1.80;;;1.60;;
4738;SDS011;2383;48.632;10.156;2023-03-23T13:12:27;1.83;;;1.55;;
4738;SDS011;2383;48.632;10.156;2023-03-23T13:16:36;3.45;;;1.60;;
4738;SDS011;2383;48.632;10.156;2023-03-23T13:20:51;2.10;;;1.70;;
4738;SDS011;2383;48.632;10.156;2023-03-23T13:24:56;4.00;;;1.75;;
4738;SDS011;2383;48.632;10.156;2023-03-23T13:33:10;1.80;;;1.45;;
4738;SDS011;2383;48.632;10.156;2023-03-23T13:41:17;2.53;;;1.95;;
4738;SDS011;2383;48.632;10.156;2023-03-23T13:49:21;2.00;;;1.73;;
4738;SDS011;2383;48.632;10.156;2023-03-23T13:53:24;2.30;;;1.80;;
4738;SDS011;2383;48.632;10.156;2023-03-23T13:57:52;4.63;;;1.65;;
4738;SDS011;2383;48.632;10.156;2023-03-23T14:06:34;2.72;;;1.35;;
4738;SDS011;2383;48.632;10.156;2023-03-23T14:14:50;2.10;;;1.50;;
4738;SDS011;2383;48.632;10.156;2023-03-23T14:18:56;2.20;;;1.80;;
4738;SDS011;2383;48.632;10.156;2023-03-23T14:22:59;2.58;;;1.90;;
4738;SDS011;2383;48.632;10.156;2023-03-23T14:27:01;2.53;;;1.70;;
4738;SDS011;2383;48.632;10.156;2023-03-23T14:31:30;12.65;;;8.00;;
4738;SDS011;2383;48.632;10.156;2023-03-23T14:35:33;3.88;;;3.47;;
4738;SDS011;2383;48.632;10.156;2023-03-23T14:39:36;3.65;;;1.63;;
4738;SDS011;2383;48.632;10.156;2023-03-23T14:43:37;2.72;;;1.80;;
4738;SDS011;2383;48.632;10.156;2023-03-23T14:47:40;2.78;;;1.60;;
4738;SDS011;2383;48.632;10.156;2023-03-23T14:51:52;1.60;;;1.50;;
4738;SDS011;2383;48.632;10.156;2023-03-23T14:55:54;1.40;;;1.30;;
4738;SDS011;2383;48.632;10.156;2023-03-23T14:59:58;2.20;;;1.55;;
4738;SDS011;2383;48.632;10.156;2023-03-23T15:04:03;4.47;;;2.45;;
4738;SDS011;2383;48.632;10.156;2023-03-23T15:08:06;1.77;;;1.60;;
4738;SDS011;2383;48.632;10.156;2023-03-23T15:12:18;5.22;;;2.45;;
4738;SDS011;2383;48.632;10.156;2023-03-23T15:16:25;4.03;;;1.60;;
4738;SDS011;2383;48.632;10.156;2023-03-23T15:20:32;2.22;;;1.77;;
4738;SDS011;2383;48.632;10.156;2023-03-23T15:24:48;2.67;;;1.67;;
4738;SDS011;2383;48.632;10.156;2023-03-23T15:29:26;3.03;;;1.80;;
4738;SDS011;2383;48.632;10.156;2023-03-23T15:33:22;3.50;;;2.05;;
4738;SDS011;2383;48.632;10.156;2023-03-23T15:37:28;3.35;;;2.42;;
4738;SDS011;2383;48.632;10.156;2023-03-23T15:41:31;4.50;;;2.05;;
4738;SDS011;2383;48.632;10.156;2023-03-23T15:45:35;2.45;;;2.00;;
4738;SDS011;2383;48.632;10.156;2023-03-23T15:49:36;2.20;;;1.80;;
4738;SDS011;2383;48.632;10.156;2023-03-23T15:53:37;4.97;;;2.90;;
4738;SDS011;2383;48.632;10.156;2023-03-23T15:57:40;4.30;;;2.65;;
4738;SDS011;2383;48.632;10.156;2023-03-23T16:01:41;2.97;;;2.30;;
4738;SDS011;2383;48.632;10.156;2023-03-23T16:05:44;6.32;;;2.28;;
4738;SDS011;2383;48.632;10.156;2023-03-23T16:09:46;7.00;;;3.75;;
4738;SDS011;2383;48.632;10.156;2023-03-23T16:13:48;4.45;;;2.17;;
4738;SDS011;2383;48.632;10.156;2023-03-23T16:17:50;3.15;;;2.33;;
4738;SDS011;2383;48.632;10.156;2023-03-23T16:21:52;3.30;;;2.30;;
4738;SDS011;2383;48.632;10.156;2023-03-23T16:25:54;3.15;;;2.20;;
4738;SDS011;2383;48.632;10.156;2023-03-23T16:29:56;3.90;;;3.10;;
4738;SDS011;2383;48.632;10.156;2023-03-23T16:34:04;4.80;;;3.20;;
4738;SDS011;2383;48.632;10.156;2023-03-23T16:38:09;3.95;;;3.03;;
4738;SDS011;2383;48.632;10.156;2023-03-23T16:42:13;4.07;;;2.05;;
4738;SDS011;2383;48.632;10.156;2023-03-23T16:46:15;2.55;;;2.10;;
4738;SDS011;2383;48.632;10.156;2023-03-23T16:50:17;3.35;;;2.42;;
4738;SDS011;2383;48.632;10.156;2023-03-23T16:54:19;4.72;;;2.97;;
4738;SDS011;2383;48.632;10.156;2023-03-23T16:58:21;7.43;;;4.10;;
4738;SDS011;2383;48.632;10.156;2023-03-23T17:02:23;6.95;;;4.75;;
4738;SDS011;2383;48.632;10.156;2023-03-23T17:06:25;7.75;;;4.82;;
4738;SDS011;2383;48.632;10.156;2023-03-23T17:10:27;8.18;;;4.70;;
4738;SDS011;2383;48.632;10.156;2023-03-23T17:14:30;5.50;;;3.63;;
4738;SDS011;2383;48.632;10.156;2023-03-23T17:18:32;3.05;;;2.67;;
4738;SDS011;2383;48.632;10.156;2023-03-23T17:22:34;10.68;;;6.43;;
4738;SDS011;2383;48.632;10.156;2023-03-23T17:26:37;8.43;;;5.10;;
4738;SDS011;2383;48.632;10.156;2023-03-23T17:30:39;10.60;;;5.90;;
4738;SDS011;2383;48.632;10.156;2023-03-23T17:34:42;13.65;;;7.82;;
4738;SDS011;2383;48.632;10.156;2023-03-23T17:38:44;16.23;;;9.63;;
4738;SDS011;2383;48.632;10.156;2023-03-23T17:42:46;11.25;;;8.23;;
4738;SDS011;2383;48.632;10.156;2023-03-23T17:46:48;6.22;;;4.05;;
4738;SDS011;2383;48.632;10.156;2023-03-23T17:50:53;5.32;;;3.85;;
4738;SDS011;2383;48.632;10.156;2023-03-23T17:54:57;5.22;;;3.25;;
4738;SDS011;2383;48.632;10.156;2023-03-23T17:58:59;5.60;;;3.28;;
4738;SDS011;2383;48.632;10.156;2023-03-23T18:03:01;6.13;;;3.50;;
4738;SDS011;2383;48.632;10.156;2023-03-23T18:07:04;4.88;;;3.10;;
4738;SDS011;2383;48.632;10.156;2023-03-23T18:11:06;5.55;;;3.38;;
4738;SDS011;2383;48.632;10.156;2023-03-23T18:15:09;4.30;;;3.20;;
4738;SDS011;2383;48.632;10.156;2023-03-23T18:19:12;5.25;;;3.75;;
4738;SDS011;2383;48.632;10.156;2023-03-23T18:23:13;6.95;;;3.83;;
4738;SDS011;2383;48.632;10.156;2023-03-23T18:27:15;7.15;;;4.28;;
4738;SDS011;2383;48.632;10.156;2023-03-23T18:31:17;7.40;;;4.20;;
4738;SDS011;2383;48.632;10.156;2023-03-23T18:35:21;10.20;;;6.10;;
4738;SDS011;2383;48.632;10.156;2023-03-23T18:39:23;11.73;;;6.68;;
4738;SDS011;2383;48.632;10.156;2023-03-23T18:43:25;7.85;;;5.70;;
4738;SDS011;2383;48.632;10.156;2023-03-23T18:47:27;10.35;;;6.75;;
4738;SDS011;2383;48.632;10.156;2023-03-23T18:51:29;11.63;;;7.15;;
4738;SDS011;2383;48.632;10.156;2023-03-23T18:55:31;12.18;;;7.88;;
4738;SDS011;2383;48.632;10.156;2023-03-23T18:59:33;10.95;;;6.65;;
4738;SDS011;2383;48.632;10.156;2023-03-23T19:03:37;9.32;;;5.55;;
4738;SDS011;2383;48.632;10.156;2023-03-23T19:07:40;6.20;;;5.00;;
4738;SDS011;2383;48.632;10.156;2023-03-23T19:11:44;6.07;;;4.72;;
4738;SDS011;2383;48.632;10.156;2023-03-23T19:15:47;8.02;;;4.93;;
4738;SDS011;2383;48.632;10.156;2023-03-23T19:19:49;7.22;;;5.10;;
4738;SDS011;2383;48.632;10.156;2023-03-23T19:23:51;8.95;;;6.07;;
4738;SDS011;2383;48.632;10.156;2023-03-23T19:27:53;9.40;;;5.93;;
4738;SDS011;2383;48.632;10.156;2023-03-23T19:31:58;6.35;;;5.45;;
4738;SDS011;2383;48.632;10.156;2023-03-23T19:36:00;8.68;;;5.72;;
4738;SDS011;2383;48.632;10.156;2023-03-23T19:40:13;9.88;;;6.25;;
4738;SDS011;2383;48.632;10.156;2023-03-23T19:44:35;8.32;;;5.78;;
4738;SDS011;2383;48.632;10.156;2023-03-23T19:48:37;11.25;;;7.30;;
4738;SDS011;2383;48.632;10.156;2023-03-23T19:52:40;9.13;;;7.03;;
4738;SDS011;2383;48.632;10.156;2023-03-23T19:56:42;8.43;;;5.88;;
4738;SDS011;2383;48.632;10.156;2023-03-23T20:00:44;7.03;;;5.45;;
4738;SDS011;2383;48.632;10.156;2023-03-23T20:04:46;11.55;;;6.82;;
4738;SDS011;2383;48.632;10.156;2023-03-23T20:08:48;14.23;;;8.63;;
4738;SDS011;2383;48.632;10.156;2023-03-23T20:12:50;16.45;;;10.20;;
4738;SDS011;2383;48.632;10.156;2023-03-23T20:16:52;15.02;;;10.13;;
4738;SDS011;2383;48.632;10.156;2023-03-23T20:21:27;12.98;;;9.65;;
4738;SDS011;2383;48.632;10.156;2023-03-23T20:25:23;14.48;;;9.52;;
4738;SDS011;2383;48.632;10.156;2023-03-23T20:29:26;11.57;;;8.77;;
4738;SDS011;2383;48.632;10.156;2023-03-23T20:33:32;11.52;;;8.27;;
4738;SDS011;2383;48.632;10.156;2023-03-23T20:37:36;12.82;;;7.05;;
4738;SDS011;2383;48.632;10.156;2023-03-23T20:41:38;11.88;;;6.90;;
4738;SDS011;2383;48.632;10.156;2023-03-23T20:45:41;13.07;;;6.90;;
4738;SDS011;2383;48.632;10.156;2023-03-23T20:49:43;9.70;;;5.55;;
4738;SDS011;2383;48.632;10.156;2023-03-23T20:53:53;7.47;;;5.25;;
4738;SDS011;2383;48.632;10.156;2023-03-23T20:57:55;8.73;;;5.85;;
4738;SDS011;2383;48.632;10.156;2023-03-23T21:01:57;9.68;;;6.63;;
4738;SDS011;2383;48.632;10.156;2023-03-23T21:06:00;8.43;;;6.25;;
4738;SDS011;2383;48.632;10.156;2023-03-23T21:10:03;8.55;;;5.63;;
4738;SDS011;2383;48.632;10.156;2023-03-23T21:14:05;7.88;;;6.22;;
4738;SDS011;2383;48.632;10.156;2023-03-23T21:18:08;9.18;;;6.18;;
4738;SDS011;2383;48.632;10.156;2023-03-23T21:22:11;8.73;;;6.10;;
4738;SDS011;2383;48.632;10.156;2023-03-23T21:26:15;10.38;;;6.57;;
4738;SDS011;2383;48.632;10.156;2023-03-23T21:30:17;10.82;;;7.00;;
4738;SDS011;2383;48.632;10.156;2023-03-23T21:34:20;7.85;;;4.70;;
4738;SDS011;2383;48.632;10.156;2023-03-23T21:38:22;11.73;;;6.53;;
4738;SDS011;2383;48.632;10.156;2023-03-23T21:42:26;9.63;;;6.72;;
4738;SDS011;2383;48.632;10.156;2023-03-23T21:46:31;14.70;;;8.00;;
4738;SDS011;2383;48.632;10.156;2023-03-23T21:50:34;11.23;;;7.03;;
4738;SDS011;2383;48.632;10.156;2023-03-23T21:54:37;10.52;;;7.22;;
4738;SDS011;2383;48.632;10.156;2023-03-23T21:58:41;11.95;;;6.95;;
4738;SDS011;2383;48.632;10.156;2023-03-23T22:02:43;14.65;;;7.72;;
4738;SDS011;2383;48.632;10.156;2023-03-23T22:06:45;18.98;;;8.90;;
4738;SDS011;2383;48.632;10.156;2023-03-23T22:10:48;19.60;;;10.57;;
4738;SDS011;2383;48.632;10.156;2023-03-23T22:15:03;25.58;;;13.07;;
4738;SDS011;2383;48.632;10.156;2023-03-23T22:19:08;20.83;;;12.10;;
4738;SDS011;2383;48.632;10.156;2023-03-23T22:23:10;18.55;;;11.35;;
4738;SDS011;2383;48.632;10.156;2023-03-23T22:27:12;17.35;;;10.43;;
4738;SDS011;2383;48.632;10.156;2023-03-23T22:31:15;14.68;;;8.50;;
4738;SDS011;2383;48.632;10.156;2023-03-23T22:35:19;13.32;;;7.65;;
4738;SDS011;2383;48.632;10.156;2023-03-23T22:39:21;12.10;;;8.35;;
4738;SDS011;2383;48.632;10.156;2023-03-23T22:43:23;9.88;;;7.32;;
4738;SDS011;2383;48.632;10.156;2023-03-23T22:47:25;12.18;;;7.20;;
4738;SDS011;2383;48.632;10.156;2023-03-23T22:51:27;18.27;;;11.40;;
4738;SDS011;2383;48.632;10.156;2023-03-23T22:55:29;22.73;;;12.93;;
4738;SDS011;2383;48.632;10.156;2023-03-23T22:59:31;14.63;;;10.20;;
4738;SDS011;2383;48.632;10.156;2023-03-23T23:03:34;12.95;;;10.10;;
4738;SDS011;2383;48.632;10.156;2023-03-23T23:07:37;14.57;;;9.65;;
4738;SDS011;2383;48.632;10.156;2023-03-23T23:11:39;8.65;;;7.22;;
4738;SDS011;2383;48.632;10.156;2023-03-23T23:15:41;9.00;;;6.90;;
4738;SDS011;2383;48.632;10.156;2023-03-23T23:19:45;11.15;;;6.47;;
4738;SDS011;2383;48.632;10.156;2023-03-23T23:23:48;10.05;;;6.10;;
4738;SDS011;2383;48.632;10.156;2023-03-23T23:27:51;8.95;;;5.63;;
4738;SDS011;2383;48.632;10.156;2023-03-23T23:31:53;9.60;;;5.72;;
4738;SDS011;2383;48.632;10.156;2023-03-23T23:35:56;7.22;;;5.57;;
4738;SDS011;2383;48.632;10.156;2023-03-23T23:39:58;7.88;;;5.70;;
4738;SDS011;2383;48.632;10.156;2023-03-23T23:43:59;7.20;;;5.82;;
4738;SDS011;2383;48.632;10.156;2023-03-23T23:48:02;8.40;;;5.20;;
4738;SDS011;2383;48.632;10.156;2023-03-23T23:52:05;7.80;;;5.68;;
4738;SDS011;2383;48.632;10.156;2023-03-23T23:56:09;7.90;;;5.68;;
